CheckWX is a tool to help pilots better visualize weather data.  It is not intended as a substitute for an official pre-flight weather briefing.

23:51:07 UTC

RKTN TAF
Daegu Airport
Daegu, South Korea
TAF RKTN 182300Z 1900/2006 31006KT 8000 SCT005 BKN010 TX22/1907Z TN11/1921Z BECMG 1900/1901 9999 NSW BKN030 BECMG 1901/1902 SCT030

Oct-19@
00:00 UTC

Oct-19 @ 00:00 UTC

Oct-20@
06:00 UTC

Oct-20 @ 06:00 UTC

TAF RKTN 182300Z 1900/2006 31006KT 8000 SCT005 BKN010 TX22/1907Z TN11/1921Z
Wind
  • 310° at 6 KTS
Cloud Levels
  • Scattered at 500' AGL
  • Broken at 1,000' AGL

Oct-19@
00:00 UTC

Oct-19 @ 00:00 UTC

Oct-19@
01:00 UTC

Oct-19 @ 01:00 UTC

BECMG 1900/1901 9999 NSW BKN030

Becoming

Becoming Conditions expected by Sat, Oct 19, 2019 @ 01:00 UTC

Wind
  • 310° at 6 KTS
Conditions
No significant weather
Cloud Levels
  • Broken at 3,000' AGL

Oct-19@
01:00 UTC

Oct-19 @ 01:00 UTC

Oct-20@
06:00 UTC

Oct-20 @ 06:00 UTC

BECMG 1901/1902 SCT030

Becoming

Becoming Conditions expected by Sat, Oct 19, 2019 @ 02:00 UTC

Wind
  • 310° at 6 KTS
Conditions
No significant weather
Cloud Levels
  • Scattered at 3,000' AGL